createdAt,value
2023-03-11T00:00:41.408Z,82.64
2023-03-11T00:03:09.319Z,82.93
2023-03-11T00:05:38.107Z,83.04
2023-03-11T00:08:06.284Z,83.75
2023-03-11T00:10:36.603Z,82.64
2023-03-11T00:13:04.442Z,82.14
2023-03-11T00:15:32.204Z,81.06
2023-03-11T00:17:59.953Z,81.26
2023-03-11T00:20:29.373Z,80.33
2023-03-11T00:22:56.677Z,79.88
2023-03-11T00:25:26.414Z,80.25
2023-03-11T00:27:54.933Z,80.13
2023-03-11T00:30:23.519Z,79.70
2023-03-11T00:32:50.540Z,79.44
2023-03-11T00:35:20.352Z,80.33
2023-03-11T00:37:48.306Z,80.63
2023-03-11T00:40:17.224Z,80.11
2023-03-11T00:42:44.898Z,80.16
2023-03-11T00:45:14.766Z,80.19
2023-03-11T00:47:41.782Z,80.82
2023-03-11T00:50:12.360Z,81.35
2023-03-11T00:52:39.442Z,81.75
2023-03-11T00:55:07.163Z,81.68
2023-03-11T00:57:34.983Z,81.84
2023-03-11T01:00:02.688Z,81.57
2023-03-11T01:02:31.083Z,81.84
2023-03-11T01:04:58.037Z,82.28
2023-03-11T01:07:25.080Z,83.05
2023-03-11T01:09:51.959Z,82.72
2023-03-11T01:12:18.958Z,82.73
2023-03-11T01:14:46.211Z,82.75
2023-03-11T01:17:13.174Z,82.24
2023-03-11T01:19:41.516Z,82.69
2023-03-11T01:22:10.192Z,82.45
2023-03-11T01:24:37.290Z,82.74
2023-03-11T01:27:04.872Z,82.89
2023-03-11T01:29:31.980Z,82.78
2023-03-11T01:31:59.401Z,82.85
2023-03-11T01:34:26.947Z,83.35
2023-03-11T01:36:55.264Z,83.51
2023-03-11T01:39:22.202Z,84.05
2023-03-11T01:41:49.806Z,83.59
2023-03-11T01:44:16.817Z,82.99
2023-03-11T01:47:16.807Z,83.11
2023-03-11T01:49:43.766Z,83.54
2023-03-11T01:52:12.293Z,83.54
2023-03-11T01:54:50.657Z,83.67
2023-03-11T01:57:18.931Z,83.40
2023-03-11T01:59:49.260Z,83.40
2023-03-11T02:02:19.802Z,83.46
2023-03-11T02:04:47.372Z,83.53
2023-03-11T02:07:17.141Z,83.69
2023-03-11T02:09:45.519Z,83.83
2023-03-11T02:12:14.186Z,84.01
2023-03-11T02:14:43.934Z,83.65
2023-03-11T02:17:11.184Z,83.88
2023-03-11T02:19:46.028Z,84.22
2023-03-11T02:22:14.147Z,83.74
2023-03-11T02:24:45.810Z,84.27
2023-03-11T02:27:17.295Z,83.69
2023-03-11T02:29:48.181Z,83.22
2023-03-11T02:32:15.820Z,82.93
2023-03-11T02:34:44.240Z,83.91
2023-03-11T02:37:14.660Z,83.97
2023-03-11T02:39:46.998Z,83.74
2023-03-11T02:42:19.750Z,83.37
2023-03-11T02:44:49.573Z,83.05
2023-03-11T02:47:16.908Z,83.49
2023-03-11T02:49:44.131Z,83.32
2023-03-11T02:52:12.984Z,84.06
2023-03-11T02:54:39.963Z,83.86
2023-03-11T02:57:06.976Z,84.13
2023-03-11T02:59:35.325Z,84.00
2023-03-11T03:02:02.315Z,84.33
2023-03-11T03:04:29.849Z,84.07
2023-03-11T03:06:58.836Z,84.61
2023-03-11T03:09:25.820Z,84.03
2023-03-11T03:11:52.793Z,83.67
2023-03-11T03:14:19.807Z,81.54
2023-03-11T03:16:48.305Z,78.10
2023-03-11T03:19:15.078Z,76.12
2023-03-11T03:21:42.232Z,74.68
2023-03-11T03:24:09.519Z,72.18
2023-03-11T03:26:36.782Z,70.71
2023-03-11T03:29:04.464Z,69.96
2023-03-11T03:31:31.658Z,67.08
2023-03-11T03:34:01.299Z,67.65
2023-03-11T03:36:28.448Z,66.04
2023-03-11T03:39:01.647Z,65.81
2023-03-11T03:41:32.778Z,66.95
2023-03-11T03:43:59.867Z,65.19
2023-03-11T03:46:27.508Z,65.09
2023-03-11T03:48:57.616Z,65.81
2023-03-11T03:51:26.564Z,64.96
2023-03-11T03:54:08.540Z,64.18
2023-03-11T03:56:36.098Z,63.13
2023-03-11T03:59:03.140Z,62.37
2023-03-11T04:01:37.095Z,63.49
2023-03-11T04:04:05.150Z,62.19
2023-03-11T04:06:33.532Z,60.90
2023-03-11T04:09:04.307Z,61.49
2023-03-11T04:11:34.555Z,60.71
2023-03-11T04:14:02.839Z,62.45
2023-03-11T04:16:32.203Z,60.78
2023-03-11T04:19:05.877Z,61.33
2023-03-11T04:21:35.495Z,60.90
2023-03-11T04:24:03.105Z,60.88
2023-03-11T04:26:34.582Z,61.38
2023-03-11T04:29:02.279Z,60.78
2023-03-11T04:31:32.937Z,60.74
2023-03-11T04:34:03.688Z,60.19
2023-03-11T04:36:30.905Z,60.79
2023-03-11T04:38:59.454Z,61.09
2023-03-11T04:41:30.221Z,60.08
2023-03-11T04:43:59.436Z,60.13
2023-03-11T04:46:26.662Z,60.05
2023-03-11T04:48:53.958Z,59.91
2023-03-11T04:51:21.037Z,59.17
2023-03-11T04:53:48.030Z,60.72
2023-03-11T04:56:16.524Z,59.58
2023-03-11T04:58:43.569Z,59.02
2023-03-11T05:01:10.837Z,59.12
2023-03-11T05:03:38.004Z,58.07
2023-03-11T05:06:05.762Z,57.83
2023-03-11T05:08:32.734Z,58.42
2023-03-11T05:10:59.850Z,58.36
2023-03-11T05:13:28.885Z,57.23
2023-03-11T05:15:56.068Z,57.38
2023-03-11T05:18:23.299Z,57.64
2023-03-11T05:20:51.789Z,57.80
2023-03-11T05:23:21.987Z,58.03
2023-03-11T05:25:49.151Z,58.00
2023-03-11T05:28:16.321Z,57.76
2023-03-11T05:30:51.603Z,57.91
2023-03-11T05:33:19.397Z,58.43
2023-03-11T05:35:47.111Z,58.17
2023-03-11T05:38:14.915Z,59.32
2023-03-11T05:40:42.563Z,59.10
2023-03-11T05:43:09.887Z,60.18
2023-03-11T05:45:39.949Z,59.19
2023-03-11T05:48:08.588Z,59.38
2023-03-11T05:50:38.091Z,60.29
2023-03-11T05:53:05.678Z,61.36
2023-03-11T05:55:32.757Z,62.14
2023-03-11T05:58:00.634Z,63.33
2023-03-11T06:00:29.604Z,63.36
2023-03-11T06:03:17.621Z,63.28
2023-03-11T06:05:47.187Z,63.86
2023-03-11T06:08:14.521Z,63.03
2023-03-11T06:10:41.515Z,64.25
2023-03-11T06:13:08.610Z,63.26
2023-03-11T06:15:44.078Z,62.17
2023-03-11T06:18:10.875Z,61.99
2023-03-11T06:20:38.505Z,62.54
2023-03-11T06:23:06.969Z,63.05
2023-03-11T06:25:33.882Z,60.71
2023-03-11T06:28:01.312Z,62.19
2023-03-11T06:30:29.119Z,62.26
2023-03-11T06:33:05.993Z,60.47
2023-03-11T06:35:33.089Z,61.62
2023-03-11T06:38:00.704Z,61.25
2023-03-11T06:40:29.272Z,60.48
2023-03-11T06:42:56.003Z,59.75
2023-03-11T06:45:25.374Z,60.85
2023-03-11T06:47:53.115Z,60.45
2023-03-11T06:50:23.731Z,61.23
2023-03-11T06:52:51.554Z,60.78
2023-03-11T06:55:18.491Z,60.14
2023-03-11T06:57:46.911Z,59.18
2023-03-11T07:00:15.193Z,60.77
2023-03-11T07:02:46.991Z,59.44
2023-03-11T07:05:15.883Z,59.24
2023-03-11T07:07:43.015Z,59.70
2023-03-11T07:10:11.301Z,60.13
2023-03-11T07:12:38.279Z,59.39
2023-03-11T07:15:08.364Z,59.76
2023-03-11T07:17:36.034Z,60.02
2023-03-11T07:20:03.561Z,58.98
2023-03-11T07:22:30.660Z,59.22
2023-03-11T07:24:57.638Z,58.65
2023-03-11T07:27:24.643Z,58.12
2023-03-11T07:29:51.667Z,58.77
2023-03-11T07:32:20.015Z,57.70
2023-03-11T07:34:47.053Z,57.65
2023-03-11T07:37:14.279Z,56.09
2023-03-11T07:39:41.806Z,55.65
2023-03-11T07:42:09.003Z,55.93
2023-03-11T07:44:36.852Z,56.05
2023-03-11T07:47:03.897Z,55.23
2023-03-11T07:49:32.537Z,53.11
2023-03-11T07:51:59.571Z,51.22
2023-03-11T07:54:26.559Z,50.93
2023-03-11T07:56:53.792Z,51.29
2023-03-11T07:59:20.807Z,50.79
2023-03-11T08:01:47.726Z,50.39
2023-03-11T08:04:17.237Z,50.01
2023-03-11T08:06:47.410Z,48.21
2023-03-11T08:09:14.570Z,47.47
2023-03-11T08:11:41.749Z,45.57
2023-03-11T08:14:09.035Z,45.17
2023-03-11T08:16:36.099Z,45.71
2023-03-11T08:19:03.414Z,45.12
2023-03-11T08:21:32.226Z,44.10
2023-03-11T08:24:02.447Z,44.16
2023-03-11T08:26:30.714Z,45.08
2023-03-11T08:28:58.447Z,42.68
2023-03-11T08:31:28.009Z,43.71
2023-03-11T08:33:57.607Z,42.61
2023-03-11T08:36:25.008Z,43.52
2023-03-11T08:38:52.101Z,42.71
2023-03-11T08:41:20.760Z,43.03
2023-03-11T08:43:47.869Z,43.31
2023-03-11T08:46:18.267Z,42.15
2023-03-11T08:48:45.270Z,41.46
2023-03-11T08:51:12.872Z,41.90
2023-03-11T08:53:39.866Z,41.08
2023-03-11T08:56:07.297Z,40.82
2023-03-11T08:58:35.895Z,39.98
2023-03-11T09:01:03.152Z,37.97
2023-03-11T09:03:31.803Z,38.26
2023-03-11T09:05:59.186Z,37.99
2023-03-11T09:08:26.396Z,38.35
2023-03-11T09:10:53.313Z,37.61
2023-03-11T09:13:20.416Z,37.49
2023-03-11T09:15:49.849Z,38.33
2023-03-11T09:18:17.868Z,40.59
2023-03-11T09:20:45.412Z,40.61
2023-03-11T09:23:14.462Z,40.59
2023-03-11T09:25:41.626Z,44.14
2023-03-11T09:28:08.721Z,44.59
2023-03-11T09:30:36.121Z,43.70
2023-03-11T09:33:04.646Z,44.99
2023-03-11T09:35:31.662Z,43.64
2023-03-11T09:37:58.629Z,41.74
2023-03-11T09:40:28.375Z,41.82
2023-03-11T09:43:05.396Z,42.36
2023-03-11T09:45:34.962Z,40.22
2023-03-11T09:48:10.842Z,37.42
2023-03-11T09:50:43.892Z,38.10
2023-03-11T09:53:19.020Z,36.49
2023-03-11T09:55:47.728Z,36.97
2023-03-11T09:58:21.868Z,36.98
2023-03-11T10:00:52.105Z,38.22
2023-03-11T10:03:39.901Z,39.46
2023-03-11T10:06:14.474Z,41.29
2023-03-11T10:08:44.036Z,41.06
2023-03-11T10:11:22.704Z,40.55
2023-03-11T10:13:54.939Z,41.09
2023-03-11T10:16:25.931Z,41.47
2023-03-11T10:18:59.962Z,41.18
2023-03-11T10:21:39.240Z,40.99
2023-03-11T10:24:32.217Z,39.95
2023-03-11T10:27:00.822Z,38.19
2023-03-11T10:29:30.093Z,38.19
2023-03-11T10:32:01.409Z,36.38
2023-03-11T10:34:34.401Z,36.21
2023-03-11T10:37:04.180Z,35.40
2023-03-11T10:39:31.922Z,35.45
2023-03-11T10:42:00.882Z,36.09
2023-03-11T10:44:29.994Z,36.51
2023-03-11T10:46:56.923Z,38.02
2023-03-11T10:49:23.894Z,38.65
2023-03-11T10:51:53.522Z,39.73
2023-03-11T10:54:24.156Z,42.54
2023-03-11T10:56:55.706Z,42.95
2023-03-11T10:59:26.485Z,45.97
2023-03-11T11:01:58.092Z,50.60
2023-03-11T11:04:31.370Z,53.72
2023-03-11T11:07:20.565Z,55.07
2023-03-11T11:09:47.780Z,56.01
2023-03-11T11:12:16.079Z,56.74
2023-03-11T11:14:44.683Z,56.09
2023-03-11T11:17:20.110Z,55.77
2023-03-11T11:19:48.136Z,54.66
2023-03-11T11:22:18.531Z,54.68
2023-03-11T11:24:46.467Z,55.58
2023-03-11T11:27:17.889Z,54.89
2023-03-11T11:29:45.606Z,55.84
2023-03-11T11:32:22.078Z,54.67
2023-03-11T11:34:59.547Z,51.88
2023-03-11T11:37:32.209Z,49.37
2023-03-11T11:40:02.016Z,49.16
2023-03-11T11:42:30.163Z,51.68
2023-03-11T11:44:57.952Z,52.29
2023-03-11T11:47:26.829Z,42.99
2023-03-11T11:49:55.774Z,41.18
2023-03-11T11:52:25.265Z,42.75
2023-03-11T11:54:57.870Z,40.30
2023-03-11T11:57:25.093Z,39.21
2023-03-11T11:59:52.019Z,39.09
2023-03-11T12:02:40.765Z,37.81
2023-03-11T12:05:10.674Z,37.72
2023-03-11T12:07:49.373Z,36.84
2023-03-11T12:10:26.362Z,37.71
2023-03-11T12:13:13.976Z,37.73
2023-03-11T12:15:43.109Z,38.56
2023-03-11T12:18:15.857Z,38.58
2023-03-11T12:20:44.652Z,38.10
2023-03-11T12:23:19.139Z,39.46
2023-03-11T12:26:12.342Z,39.96
2023-03-11T12:28:43.914Z,41.54
2023-03-11T12:31:12.584Z,43.05
2023-03-11T12:33:41.567Z,43.15
2023-03-11T12:36:21.939Z,45.66
2023-03-11T12:38:49.399Z,45.41
2023-03-11T12:41:33.613Z,45.78
2023-03-11T12:44:04.143Z,44.96
2023-03-11T12:47:04.733Z,46.50
2023-03-11T12:49:32.656Z,46.61
2023-03-11T12:52:05.444Z,45.81
2023-03-11T12:54:34.402Z,45.98
2023-03-11T12:57:04.020Z,44.82
2023-03-11T12:59:55.149Z,43.87
2023-03-11T13:02:31.659Z,44.63
2023-03-11T13:05:00.170Z,43.63
2023-03-11T13:07:47.303Z,42.99
2023-03-11T13:10:18.098Z,43.07
2023-03-11T13:12:47.886Z,43.91
2023-03-11T13:15:31.426Z,45.56
2023-03-11T13:17:59.987Z,45.67
2023-03-11T13:20:49.379Z,44.83
2023-03-11T13:23:36.493Z,44.58
2023-03-11T13:26:31.667Z,44.59
2023-03-11T13:29:27.753Z,45.01
2023-03-11T13:32:04.547Z,45.51
2023-03-11T13:34:40.489Z,47.53
2023-03-11T13:37:17.662Z,48.51
2023-03-11T13:39:55.035Z,52.09
2023-03-11T13:42:30.702Z,56.92
2023-03-11T13:44:59.990Z,59.20
2023-03-11T13:47:27.646Z,62.68
2023-03-11T13:50:00.351Z,63.74
2023-03-11T13:52:29.785Z,64.73
2023-03-11T13:55:01.555Z,65.88
2023-03-11T13:57:30.293Z,66.45
2023-03-11T14:00:03.978Z,65.05
2023-03-11T14:02:37.355Z,66.13
2023-03-11T14:05:07.116Z,65.98
2023-03-11T14:07:35.505Z,65.92
2023-03-11T14:10:20.350Z,65.93
2023-03-11T14:12:47.591Z,64.45
2023-03-11T14:15:18.983Z,65.23
2023-03-11T14:17:48.605Z,65.91
2023-03-11T14:20:17.595Z,65.62
2023-03-11T14:22:45.052Z,66.24
2023-03-11T14:25:18.282Z,65.75
2023-03-11T14:27:50.634Z,64.56
2023-03-11T14:30:25.232Z,64.87
2023-03-11T14:33:00.699Z,64.24
2023-03-11T14:35:28.277Z,65.49
2023-03-11T14:37:55.326Z,65.46
2023-03-11T14:40:26.123Z,64.99
2023-03-11T14:42:54.947Z,64.83
2023-03-11T14:45:24.658Z,65.55
2023-03-11T14:47:54.597Z,63.73
2023-03-11T14:50:24.463Z,63.18
2023-03-11T14:52:53.143Z,61.94
2023-03-11T14:55:22.388Z,61.92
2023-03-11T14:57:52.453Z,61.80
2023-03-11T15:00:23.735Z,62.48
2023-03-11T15:03:01.754Z,63.29
2023-03-11T15:05:35.122Z,64.08
2023-03-11T15:08:03.762Z,62.99
2023-03-11T15:10:30.901Z,63.83
2023-03-11T15:13:06.406Z,64.81
2023-03-11T15:15:34.833Z,65.04
2023-03-11T15:18:02.159Z,63.89
2023-03-11T15:20:31.639Z,62.01
2023-03-11T15:23:03.340Z,63.26
2023-03-11T15:25:33.263Z,64.13
2023-03-11T15:28:00.834Z,64.28
2023-03-11T15:30:30.073Z,66.21
2023-03-11T15:32:58.993Z,64.15
2023-03-11T15:35:27.707Z,64.61
2023-03-11T15:38:12.759Z,65.53
2023-03-11T15:40:45.578Z,68.41
2023-03-11T15:43:28.655Z,69.26
2023-03-11T15:45:57.251Z,69.21
2023-03-11T15:48:27.864Z,69.38
2023-03-11T15:50:56.420Z,70.79
2023-03-11T15:53:23.778Z,71.84
2023-03-11T15:55:52.087Z,72.51
2023-03-11T15:58:20.374Z,72.95
2023-03-11T16:00:49.173Z,73.67
2023-03-11T16:03:16.522Z,74.94
2023-03-11T16:05:44.975Z,76.68
2023-03-11T16:08:11.718Z,76.25
2023-03-11T16:10:39.360Z,76.92
2023-03-11T16:13:06.619Z,76.64
2023-03-11T16:15:35.160Z,76.84
2023-03-11T16:18:02.413Z,77.31
2023-03-11T16:20:31.533Z,77.60
2023-03-11T16:23:01.793Z,78.34
2023-03-11T16:25:31.250Z,78.60
2023-03-11T16:27:58.587Z,78.80
2023-03-11T16:30:29.302Z,78.31
2023-03-11T16:32:56.731Z,78.43
2023-03-11T16:35:23.995Z,78.22
2023-03-11T16:37:51.199Z,78.74
2023-03-11T16:40:21.511Z,78.32
2023-03-11T16:42:48.653Z,78.05
2023-03-11T16:45:17.112Z,78.83
2023-03-11T16:47:44.045Z,78.39
2023-03-11T16:50:12.222Z,79.12
2023-03-11T16:52:39.496Z,77.56
2023-03-11T16:55:07.159Z,77.23
2023-03-11T16:57:36.429Z,77.81
2023-03-11T17:00:05.685Z,77.75
2023-03-11T17:02:33.292Z,78.72
2023-03-11T17:05:00.365Z,77.83
2023-03-11T17:07:27.551Z,78.22
2023-03-11T17:09:54.516Z,77.93
2023-03-11T17:12:23.190Z,78.29
2023-03-11T17:14:52.031Z,77.78
2023-03-11T17:17:19.284Z,78.99
2023-03-11T17:19:46.479Z,78.77
2023-03-11T17:22:13.766Z,79.10
2023-03-11T17:24:41.063Z,78.07
2023-03-11T17:27:07.989Z,77.84
2023-03-11T17:29:35.054Z,78.39
2023-03-11T17:32:03.802Z,77.95
2023-03-11T17:34:30.840Z,78.68
2023-03-11T17:36:57.874Z,78.47
2023-03-11T17:39:24.931Z,77.94
2023-03-11T17:41:52.246Z,78.59
2023-03-11T17:44:19.224Z,78.39
2023-03-11T17:46:47.570Z,78.48
2023-03-11T17:49:15.951Z,78.54
2023-03-11T17:51:42.913Z,78.43
2023-03-11T17:54:09.812Z,77.14
2023-03-11T17:56:36.827Z,77.85
2023-03-11T17:59:03.737Z,77.37
2023-03-11T18:01:30.731Z,77.86
2023-03-11T18:03:57.818Z,77.77
2023-03-11T18:06:26.096Z,78.00
2023-03-11T18:08:53.123Z,78.46
2023-03-11T18:11:21.736Z,78.41
2023-03-11T18:13:49.272Z,78.56
2023-03-11T18:16:18.140Z,78.45
2023-03-11T18:18:45.515Z,78.57
2023-03-11T18:21:13.581Z,77.70
2023-03-11T18:23:42.635Z,77.88
2023-03-11T18:26:12.573Z,77.38
2023-03-11T18:28:39.689Z,74.17
2023-03-11T18:31:07.650Z,72.25
2023-03-11T18:33:34.614Z,73.05
2023-03-11T18:36:11.517Z,73.45
2023-03-11T18:38:38.500Z,73.05
2023-03-11T18:41:06.833Z,73.42
2023-03-11T18:43:33.779Z,73.27
2023-03-11T18:46:01.486Z,72.89
2023-03-11T18:48:28.694Z,70.70
2023-03-11T18:50:56.090Z,72.15
2023-03-11T18:53:25.023Z,73.26
2023-03-11T18:55:52.547Z,71.91
2023-03-11T18:58:20.799Z,72.39
2023-03-11T19:00:47.925Z,70.71
2023-03-11T19:03:15.052Z,70.56
2023-03-11T19:05:48.925Z,69.71
2023-03-11T19:08:17.227Z,67.85
2023-03-11T19:10:44.266Z,67.73
2023-03-11T19:13:11.263Z,68.10
2023-03-11T19:15:40.926Z,67.20
2023-03-11T19:18:08.452Z,66.60
2023-03-11T19:20:35.611Z,67.69
2023-03-11T19:23:02.618Z,66.50
2023-03-11T19:25:29.559Z,67.57
2023-03-11T19:27:57.036Z,68.99
2023-03-11T19:30:24.288Z,69.14
2023-03-11T19:32:53.036Z,69.47
2023-03-11T19:35:21.254Z,68.80
2023-03-11T19:37:48.407Z,69.01
2023-03-11T19:40:15.963Z,68.29
2023-03-11T19:42:43.139Z,68.37
2023-03-11T19:45:10.989Z,69.39
2023-03-11T19:47:38.392Z,68.37
2023-03-11T19:50:07.701Z,69.22
2023-03-11T19:52:36.053Z,68.63
2023-03-11T19:55:03.587Z,68.15
2023-03-11T19:57:30.608Z,68.32
2023-03-11T19:59:57.532Z,67.20
2023-03-11T20:02:24.713Z,67.18
2023-03-11T20:04:51.860Z,67.89
2023-03-11T20:07:20.238Z,67.74
2023-03-11T20:09:47.319Z,67.61
2023-03-11T20:12:14.307Z,66.12
2023-03-11T20:14:41.929Z,66.48
2023-03-11T20:17:09.195Z,63.96
2023-03-11T20:19:36.467Z,65.25
2023-03-11T20:22:03.562Z,65.04
2023-03-11T20:24:32.127Z,63.82
2023-03-11T20:26:59.091Z,64.56
2023-03-11T20:29:26.069Z,65.00
2023-03-11T20:31:53.313Z,65.32
2023-03-11T20:34:20.427Z,65.23
2023-03-11T20:36:48.504Z,63.81
2023-03-11T20:39:15.491Z,63.69
2023-03-11T20:41:43.960Z,63.66
2023-03-11T20:44:13.047Z,63.55
2023-03-11T20:46:40.337Z,63.83
2023-03-11T20:49:07.359Z,64.62
2023-03-11T20:51:34.464Z,64.23
2023-03-11T20:54:01.393Z,64.02
2023-03-11T20:56:28.630Z,63.52
2023-03-11T20:58:59.265Z,63.20
2023-03-11T21:01:28.685Z,62.73
2023-03-11T21:03:57.167Z,64.25
2023-03-11T21:06:25.935Z,64.31
2023-03-11T21:08:53.608Z,61.59
2023-03-11T21:11:20.562Z,63.33
2023-03-11T21:13:47.702Z,63.29
2023-03-11T21:16:16.215Z,63.39
2023-03-11T21:18:44.458Z,62.49
2023-03-11T21:21:11.846Z,62.98
2023-03-11T21:23:39.587Z,62.61
2023-03-11T21:26:07.113Z,61.71
2023-03-11T21:28:34.885Z,62.63
2023-03-11T21:31:04.286Z,62.32
2023-03-11T21:33:32.773Z,62.88
2023-03-11T21:36:00.784Z,62.51
2023-03-11T21:38:28.304Z,77.31
2023-03-11T21:41:04.913Z,65.29
2023-03-11T21:43:31.976Z,62.86
2023-03-11T21:45:59.005Z,62.19
2023-03-11T21:48:26.338Z,62.30
2023-03-11T21:50:54.783Z,62.44
2023-03-11T21:53:21.938Z,63.00
2023-03-11T21:55:48.919Z,63.96
2023-03-11T21:58:16.088Z,63.70
2023-03-11T22:00:43.246Z,62.07
2023-03-11T22:03:10.606Z,62.74
2023-03-11T22:05:37.738Z,64.33
2023-03-11T22:08:06.405Z,63.70
2023-03-11T22:10:33.741Z,63.36
2023-03-11T22:13:00.959Z,62.63
2023-03-11T22:15:28.163Z,58.99
2023-03-11T22:17:55.293Z,61.29
2023-03-11T22:23:09.164Z,58.34
2023-03-11T22:25:36.621Z,57.30
2023-03-11T22:28:04.149Z,56.39
2023-03-11T22:30:31.588Z,57.34
2023-03-11T22:32:58.621Z,57.03
2023-03-11T22:35:25.812Z,67.66
2023-03-11T22:37:52.885Z,69.21
2023-03-11T22:40:21.231Z,70.13
2023-03-11T22:42:48.186Z,58.13
2023-03-11T22:45:15.285Z,57.11
2023-03-11T22:47:42.195Z,53.67
2023-03-11T22:50:10.192Z,54.77
2023-03-11T22:52:37.385Z,55.71
2023-03-11T22:55:04.728Z,56.35
2023-03-11T22:57:38.791Z,56.72
2023-03-11T23:00:17.033Z,54.95
2023-03-11T23:02:44.691Z,55.91
2023-03-11T23:05:12.063Z,55.88
2023-03-11T23:07:39.077Z,54.34
2023-03-11T23:10:07.780Z,54.11
2023-03-11T23:12:36.236Z,54.13
2023-03-11T23:15:04.270Z,54.94
2023-03-11T23:17:31.181Z,54.06
2023-03-11T23:19:58.178Z,54.13
2023-03-11T23:22:25.351Z,53.29
2023-03-11T23:24:52.478Z,53.88
2023-03-11T23:27:19.565Z,53.69
2023-03-11T23:29:48.093Z,52.64
2023-03-11T23:32:15.086Z,52.02
2023-03-11T23:34:42.064Z,52.64
2023-03-11T23:37:08.986Z,52.61
2023-03-11T23:39:35.870Z,52.82
2023-03-11T23:42:11.803Z,53.08
2023-03-11T23:44:51.027Z,52.13
2023-03-11T23:47:18.227Z,51.95
2023-03-11T23:49:45.130Z,52.83
2023-03-11T23:52:12.100Z,53.26
2023-03-11T23:54:39.109Z,53.36
2023-03-11T23:57:06.124Z,53.36
2023-03-11T23:59:33.200Z,53.66
